createdAt,value
2022-12-05T00:01:52.996Z,2.42
2022-12-05T00:04:21.230Z,2.38
2022-12-05T00:06:49.211Z,2.34
2022-12-05T00:09:17.167Z,2.31
2022-12-05T00:11:46.158Z,2.31
2022-12-05T00:14:14.507Z,2.32
2022-12-05T00:16:44.587Z,2.32
2022-12-05T00:19:16.262Z,2.31
2022-12-05T00:21:46.000Z,2.32
2022-12-05T00:24:16.556Z,2.33
2022-12-05T00:26:44.587Z,2.35
2022-12-05T00:29:13.364Z,2.39
2022-12-05T00:31:41.767Z,2.35
2022-12-05T00:34:10.305Z,2.42
2022-12-05T00:36:38.950Z,2.43
2022-12-05T00:39:10.380Z,2.45
2022-12-05T00:41:38.284Z,2.44
2022-12-05T00:44:07.163Z,2.42
2022-12-05T00:46:36.445Z,2.41
2022-12-05T00:49:06.633Z,2.38
2022-12-05T00:51:37.850Z,2.34
2022-12-05T00:54:13.902Z,2.33
2022-12-05T00:56:43.112Z,2.34
2022-12-05T00:59:19.406Z,2.34
2022-12-05T01:01:48.214Z,2.33
2022-12-05T01:04:19.408Z,2.28
2022-12-05T01:06:48.122Z,2.26
2022-12-05T01:09:19.127Z,2.29
2022-12-05T01:11:48.132Z,2.27
2022-12-05T01:14:19.237Z,2.28
2022-12-05T01:16:49.086Z,2.27
2022-12-05T01:19:18.655Z,2.25
2022-12-05T01:21:47.968Z,2.23
2022-12-05T01:24:17.323Z,2.22
2022-12-05T01:26:45.785Z,2.22
2022-12-05T01:29:16.293Z,2.20
2022-12-05T01:31:44.732Z,2.17
2022-12-05T01:34:15.070Z,2.13
2022-12-05T01:36:44.139Z,2.14
2022-12-05T01:39:12.702Z,2.16
2022-12-05T01:41:44.190Z,2.21
2022-12-05T01:44:12.773Z,2.25
2022-12-05T01:46:47.628Z,2.27
2022-12-05T01:49:21.471Z,2.25
2022-12-05T01:51:50.215Z,2.26
2022-12-05T01:54:18.760Z,2.29
2022-12-05T01:56:50.917Z,2.26
2022-12-05T01:59:22.254Z,2.22
2022-12-05T02:01:51.029Z,2.21
2022-12-05T02:04:19.683Z,2.25
2022-12-05T02:06:47.878Z,2.25
2022-12-05T02:09:15.880Z,2.22
2022-12-05T02:11:50.610Z,2.20
2022-12-05T02:14:27.948Z,2.18
2022-12-05T02:17:27.951Z,2.17
2022-12-05T02:20:29.708Z,2.22
2022-12-05T02:23:09.530Z,2.26
2022-12-05T02:25:52.519Z,2.33
2022-12-05T02:28:26.411Z,2.32
2022-12-05T02:31:08.314Z,2.36
2022-12-05T02:33:42.377Z,2.32
2022-12-05T02:36:36.618Z,2.41
2022-12-05T02:39:10.414Z,2.42
2022-12-05T02:41:41.593Z,2.42
2022-12-05T02:44:15.769Z,2.43
2022-12-05T02:46:48.658Z,2.42
2022-12-05T02:49:27.172Z,2.43
2022-12-05T02:51:59.176Z,2.45
2022-12-05T02:54:39.760Z,2.39
2022-12-05T02:57:10.857Z,2.47
2022-12-05T02:59:39.339Z,2.49
2022-12-05T03:02:24.577Z,2.61
2022-12-05T03:04:55.740Z,2.66
2022-12-05T03:07:31.543Z,2.67
2022-12-05T03:10:06.114Z,2.70
2022-12-05T03:12:44.880Z,2.71
2022-12-05T03:15:17.513Z,2.59
2022-12-05T03:17:57.642Z,2.69
2022-12-05T03:20:28.649Z,2.70
2022-12-05T03:23:06.361Z,2.73
2022-12-05T03:25:59.610Z,2.81
2022-12-05T03:28:42.252Z,2.90
2022-12-05T03:31:13.175Z,2.90
2022-12-05T03:33:45.511Z,2.89
2022-12-05T03:36:16.146Z,2.88
2022-12-05T03:39:06.454Z,2.84
2022-12-05T03:41:37.316Z,2.79
2022-12-05T03:44:20.524Z,2.75
2022-12-05T03:47:10.335Z,2.69
2022-12-05T03:49:45.655Z,2.63
2022-12-05T03:52:20.702Z,2.62
2022-12-05T03:54:54.028Z,2.60
2022-12-05T03:57:35.816Z,2.58
2022-12-05T04:00:09.024Z,2.56
2022-12-05T04:03:09.730Z,2.56
2022-12-05T04:05:44.025Z,2.59
2022-12-05T04:08:25.086Z,2.62
2022-12-05T04:10:58.127Z,2.63
2022-12-05T04:13:37.859Z,2.56
2022-12-05T04:16:33.764Z,2.56
2022-12-05T04:19:09.124Z,2.57
2022-12-05T04:21:44.467Z,2.58
2022-12-05T04:24:36.720Z,2.55
2022-12-05T04:27:12.540Z,2.54
2022-12-05T04:29:54.933Z,2.51
2022-12-05T04:32:26.491Z,2.45
2022-12-05T04:34:58.823Z,2.38
2022-12-05T04:37:33.496Z,2.34
2022-12-05T04:40:10.254Z,2.36
2022-12-05T04:42:40.651Z,2.40
2022-12-05T04:45:12.064Z,2.44
2022-12-05T04:47:46.871Z,2.47
2022-12-05T04:50:17.834Z,2.48
2022-12-05T04:52:50.615Z,2.42
2022-12-05T04:55:26.000Z,2.39
2022-12-05T04:58:07.627Z,2.35
2022-12-05T05:01:02.518Z,2.30
2022-12-05T05:03:38.749Z,2.27
2022-12-05T05:06:07.918Z,2.19
2022-12-05T05:08:35.907Z,2.26
2022-12-05T05:11:13.564Z,2.27
2022-12-05T05:13:41.856Z,2.36
2022-12-05T05:16:19.458Z,2.41
2022-12-05T05:18:48.920Z,2.43
2022-12-05T05:21:24.372Z,2.46
2022-12-05T05:23:53.701Z,2.48
2022-12-05T05:26:23.031Z,2.51
2022-12-05T05:28:51.471Z,2.51
2022-12-05T05:31:21.149Z,2.54
2022-12-05T05:33:53.069Z,2.56
2022-12-05T05:36:23.014Z,2.62
2022-12-05T05:38:53.522Z,2.64
2022-12-05T05:41:27.928Z,2.63
2022-12-05T05:43:57.147Z,2.66
2022-12-05T05:46:28.063Z,2.66
2022-12-05T05:48:56.270Z,2.67
2022-12-05T05:51:29.484Z,2.66
2022-12-05T05:53:58.713Z,2.61
2022-12-05T05:56:26.905Z,2.58
2022-12-05T05:59:20.300Z,2.58
2022-12-05T06:01:48.446Z,2.58
2022-12-05T06:04:16.540Z,2.58
2022-12-05T06:06:46.615Z,2.56
2022-12-05T06:09:15.065Z,2.48
2022-12-05T06:11:43.469Z,2.50
2022-12-05T06:14:11.801Z,2.48
2022-12-05T06:16:39.907Z,2.45
2022-12-05T06:19:07.908Z,2.43
2022-12-05T06:21:35.811Z,2.45
2022-12-05T06:24:04.323Z,2.48
2022-12-05T06:26:32.343Z,2.48
2022-12-05T06:29:02.473Z,2.48
2022-12-05T06:31:34.150Z,2.50
2022-12-05T06:34:03.290Z,2.51
2022-12-05T06:36:31.784Z,2.51
2022-12-05T06:39:04.058Z,2.48
2022-12-05T06:41:33.840Z,2.43
2022-12-05T06:44:04.921Z,2.41
2022-12-05T06:46:36.890Z,2.29
2022-12-05T06:49:04.898Z,2.30
2022-12-05T06:51:33.147Z,2.26
2022-12-05T06:54:02.179Z,2.22
2022-12-05T06:56:30.134Z,2.33
2022-12-05T06:58:58.348Z,2.36
2022-12-05T07:01:42.938Z,2.39
2022-12-05T07:04:16.044Z,2.49
2022-12-05T07:06:49.904Z,2.58
2022-12-05T07:09:22.497Z,2.66
2022-12-05T07:11:52.341Z,2.72
2022-12-05T07:17:11.458Z,2.82
2022-12-05T07:19:39.749Z,2.90
2022-12-05T07:22:12.144Z,2.88
2022-12-05T07:24:44.104Z,2.96
2022-12-05T07:27:14.397Z,3.02
2022-12-05T07:29:42.403Z,3.12
2022-12-05T07:32:10.987Z,3.18
2022-12-05T07:34:40.714Z,3.21
2022-12-05T07:37:08.801Z,3.22
2022-12-05T07:39:36.911Z,3.23
2022-12-05T07:42:05.255Z,3.23
2022-12-05T07:44:33.477Z,3.26
2022-12-05T07:47:01.542Z,3.30
2022-12-05T07:49:29.846Z,3.38
2022-12-05T07:51:57.858Z,3.40
2022-12-05T07:54:25.884Z,3.43
2022-12-05T07:56:53.931Z,3.45
2022-12-05T07:59:22.061Z,3.49
2022-12-05T08:01:50.395Z,3.62
2022-12-05T08:04:18.810Z,3.81
2022-12-05T08:06:47.200Z,3.95
2022-12-05T08:09:15.427Z,4.08
2022-12-05T08:11:47.000Z,4.23
2022-12-05T08:14:18.995Z,4.36
2022-12-05T08:16:49.454Z,4.61
2022-12-05T08:19:17.617Z,4.82
2022-12-05T08:21:46.341Z,4.92
2022-12-05T08:24:14.324Z,5.00
2022-12-05T08:26:42.664Z,5.23
2022-12-05T08:29:14.300Z,5.54
2022-12-05T08:31:47.411Z,6.12
2022-12-05T08:34:17.294Z,6.63
2022-12-05T08:36:46.230Z,7.11
2022-12-05T08:39:17.981Z,7.49
2022-12-05T08:41:48.202Z,7.92
2022-12-05T08:44:18.723Z,8.22
2022-12-05T08:46:49.608Z,8.38
2022-12-05T08:49:17.718Z,8.49
2022-12-05T08:51:46.308Z,8.66
2022-12-05T08:54:14.879Z,8.85
2022-12-05T08:56:44.437Z,8.82
2022-12-05T08:59:16.343Z,8.84
2022-12-05T09:01:55.585Z,9.06
2022-12-05T09:04:23.722Z,9.51
2022-12-05T09:06:52.084Z,9.94
2022-12-05T09:09:22.642Z,10.14
2022-12-05T09:11:53.247Z,10.29
2022-12-05T09:14:33.407Z,10.36
2022-12-05T09:17:04.485Z,10.67
2022-12-05T09:19:32.753Z,11.27
2022-12-05T09:22:05.100Z,12.03
2022-12-05T09:24:33.292Z,12.55
2022-12-05T09:27:03.736Z,13.00
2022-12-05T09:29:32.007Z,13.24
2022-12-05T09:32:00.534Z,13.29
2022-12-05T09:34:31.514Z,13.39
2022-12-05T09:37:16.648Z,13.41
2022-12-05T09:39:48.654Z,13.41
2022-12-05T09:42:30.272Z,13.50
2022-12-05T09:45:26.089Z,13.74
2022-12-05T09:48:10.307Z,13.95
2022-12-05T09:50:49.759Z,14.26
2022-12-05T09:53:29.134Z,14.68
2022-12-05T09:56:18.120Z,15.33
2022-12-05T09:58:48.030Z,16.04
2022-12-05T10:01:38.831Z,16.52
2022-12-05T10:04:25.925Z,16.96
2022-12-05T10:07:15.959Z,17.34
2022-12-05T10:09:58.985Z,17.70
2022-12-05T10:12:52.327Z,17.96
2022-12-05T10:15:26.852Z,18.14
2022-12-05T10:18:22.645Z,18.39
2022-12-05T10:21:11.075Z,18.73
2022-12-05T10:24:03.576Z,19.05
2022-12-05T10:26:37.645Z,19.38
2022-12-05T10:30:38.363Z,19.63
2022-12-05T10:33:25.282Z,20.04
2022-12-05T10:35:54.564Z,20.24
2022-12-05T10:38:36.989Z,20.27
2022-12-05T10:41:11.453Z,19.66
2022-12-05T10:43:46.774Z,18.49
2022-12-05T10:46:17.410Z,17.22
2022-12-05T10:48:45.796Z,16.14
2022-12-05T10:51:18.031Z,15.18
2022-12-05T10:53:50.025Z,14.39
2022-12-05T10:56:36.662Z,13.78
2022-12-05T10:59:06.941Z,13.18
2022-12-05T11:01:39.286Z,12.73
2022-12-05T11:04:22.476Z,12.31
2022-12-05T11:07:00.139Z,11.94
2022-12-05T11:09:40.842Z,11.60
2022-12-05T11:12:19.806Z,11.28
2022-12-05T11:14:55.873Z,11.06
2022-12-05T11:17:26.356Z,10.83
2022-12-05T11:19:54.500Z,10.48
2022-12-05T11:22:36.270Z,10.31
2022-12-05T11:25:34.992Z,10.21
2022-12-05T11:28:18.501Z,10.16
2022-12-05T11:30:55.763Z,10.10
2022-12-05T11:36:20.859Z,9.97
2022-12-05T11:38:49.249Z,9.95
2022-12-05T11:41:32.051Z,9.83
2022-12-05T11:44:35.203Z,9.72
2022-12-05T11:47:22.133Z,9.73
2022-12-05T11:50:15.590Z,9.82
2022-12-05T11:53:08.433Z,9.84
2022-12-05T12:05:58.462Z,9.35
2022-12-05T12:06:38.198Z,9.78
2022-12-05T12:09:15.820Z,9.36
2022-12-05T12:12:03.150Z,9.31
2022-12-05T12:14:44.507Z,9.21
2022-12-05T12:17:48.597Z,9.10
2022-12-05T12:20:36.278Z,8.96
2022-12-05T12:23:51.657Z,8.80
2022-12-05T12:26:20.135Z,8.68
2022-12-05T12:28:52.872Z,8.63
2022-12-05T12:31:23.437Z,8.56
2022-12-05T12:34:23.282Z,8.49
2022-12-05T12:36:51.682Z,8.46
2022-12-05T12:46:18.705Z,8.71
2022-12-05T12:49:06.436Z,8.88
2022-12-05T12:51:34.918Z,8.93
2022-12-05T12:55:06.259Z,8.90
2022-12-05T12:57:49.305Z,8.89
2022-12-05T13:00:30.087Z,8.94
2022-12-05T13:03:25.753Z,9.01
2022-12-05T13:06:02.864Z,9.04
2022-12-05T13:08:53.312Z,9.04
2022-12-05T13:11:22.735Z,9.04
2022-12-05T13:13:53.784Z,9.00
2022-12-05T13:16:33.335Z,8.92
2022-12-05T13:19:06.074Z,8.89
2022-12-05T13:21:35.663Z,8.90
2022-12-05T13:24:04.771Z,8.85
2022-12-05T13:26:37.191Z,8.80
2022-12-05T13:29:06.402Z,8.71
2022-12-05T13:31:40.851Z,8.69
2022-12-05T13:34:34.183Z,8.72
2022-12-05T13:37:31.414Z,8.78
2022-12-05T13:40:18.301Z,8.84
2022-12-05T13:42:48.181Z,8.85
2022-12-05T13:45:20.342Z,8.82
2022-12-05T13:48:00.494Z,8.71
2022-12-05T13:50:46.023Z,8.60
2022-12-05T13:53:25.352Z,8.58
2022-12-05T13:55:59.320Z,8.55
2022-12-05T13:58:33.219Z,8.50
2022-12-05T14:01:27.537Z,8.43
2022-12-05T14:04:00.781Z,8.39
2022-12-05T14:06:38.250Z,8.35
2022-12-05T14:09:48.386Z,8.30
2022-12-05T14:12:16.303Z,8.20
2022-12-05T14:15:00.704Z,8.11
2022-12-05T14:17:30.275Z,8.06
2022-12-05T14:20:30.222Z,8.07
2022-12-05T14:23:20.589Z,8.11
2022-12-05T14:25:58.118Z,8.17
2022-12-05T14:28:58.849Z,8.20
2022-12-05T14:32:08.632Z,8.22
2022-12-05T14:34:48.319Z,8.14
2022-12-05T14:37:16.216Z,8.04
2022-12-05T14:39:57.168Z,7.95
2022-12-05T14:42:44.035Z,7.93
2022-12-05T14:45:36.154Z,7.95
2022-12-05T14:48:13.241Z,7.90
2022-12-05T14:50:49.900Z,7.82
2022-12-05T14:53:20.989Z,7.73
2022-12-05T14:56:09.958Z,7.66
2022-12-05T14:58:44.530Z,7.60
2022-12-05T15:01:12.335Z,7.51
2022-12-05T15:03:52.497Z,7.46
2022-12-05T15:06:22.895Z,7.44
2022-12-05T15:08:55.063Z,7.44
2022-12-05T15:11:30.638Z,7.48
2022-12-05T15:14:11.335Z,7.55
2022-12-05T15:16:43.298Z,7.63
2022-12-05T15:19:33.499Z,7.68
2022-12-05T15:22:06.842Z,7.69
2022-12-05T15:24:39.539Z,7.69
2022-12-05T15:27:14.586Z,7.71
2022-12-05T15:29:43.497Z,7.75
2022-12-05T15:32:11.402Z,7.81
2022-12-05T15:35:01.848Z,7.87
2022-12-05T15:37:30.029Z,7.93
2022-12-05T15:40:04.352Z,7.93
2022-12-05T15:42:36.709Z,7.95
2022-12-05T15:45:14.348Z,7.88
2022-12-05T15:47:45.832Z,7.75
2022-12-05T15:50:15.647Z,7.65
2022-12-05T15:52:44.100Z,7.66
2022-12-05T15:55:17.839Z,7.68
2022-12-05T15:58:21.080Z,7.69
2022-12-05T16:00:50.996Z,7.71
2022-12-05T16:03:21.435Z,7.74
2022-12-05T16:05:58.529Z,7.74
2022-12-05T16:08:31.382Z,7.74
2022-12-05T16:11:08.214Z,7.76
2022-12-05T16:13:37.913Z,7.78
2022-12-05T16:16:06.890Z,7.75
2022-12-05T16:18:35.142Z,7.81
2022-12-05T16:21:03.296Z,7.81
2022-12-05T16:23:33.300Z,7.81
2022-12-05T16:26:13.604Z,7.79
2022-12-05T16:28:41.953Z,7.77
2022-12-05T16:31:17.677Z,7.80
2022-12-05T16:33:45.720Z,7.79
2022-12-05T16:36:14.493Z,7.81
2022-12-05T16:38:43.509Z,7.82
2022-12-05T16:41:12.653Z,7.83
2022-12-05T16:43:42.784Z,7.80
2022-12-05T16:46:10.825Z,7.79
2022-12-05T16:48:39.864Z,7.81
2022-12-05T16:51:14.130Z,7.85
2022-12-05T16:53:43.969Z,7.86
2022-12-05T16:56:25.209Z,7.85
2022-12-05T16:58:53.917Z,7.84
2022-12-05T17:01:27.263Z,7.84
2022-12-05T17:03:56.200Z,7.80
2022-12-05T17:06:25.475Z,7.80
2022-12-05T17:08:54.629Z,7.81
2022-12-05T17:11:30.117Z,7.82
2022-12-05T17:13:59.050Z,7.83
2022-12-05T17:16:27.777Z,7.85
2022-12-05T17:18:56.483Z,7.88
2022-12-05T17:21:25.781Z,7.91
2022-12-05T17:23:53.778Z,7.95
2022-12-05T17:26:22.701Z,7.98
2022-12-05T17:28:51.117Z,8.00
2022-12-05T17:31:21.979Z,8.00
2022-12-05T17:33:51.696Z,8.02
2022-12-05T17:36:22.468Z,8.04
2022-12-05T17:38:50.788Z,8.07
2022-12-05T17:41:23.704Z,8.10
2022-12-05T17:43:51.833Z,8.11
2022-12-05T17:46:22.787Z,8.13
2022-12-05T17:48:52.240Z,8.11
2022-12-05T17:51:20.742Z,8.10
2022-12-05T17:53:49.437Z,8.08
2022-12-05T17:56:17.440Z,8.06
2022-12-05T17:58:46.379Z,8.05
2022-12-05T18:01:18.009Z,8.02
2022-12-05T18:03:46.732Z,7.98
2022-12-05T18:06:16.282Z,7.98
2022-12-05T18:08:45.466Z,7.99
2022-12-05T18:11:14.152Z,8.00
2022-12-05T18:13:42.718Z,8.01
2022-12-05T18:16:11.719Z,8.02
2022-12-05T18:18:39.884Z,8.04
2022-12-05T18:21:13.151Z,8.05
2022-12-05T18:23:41.571Z,8.06
2022-12-05T18:26:10.836Z,8.07
2022-12-05T18:28:53.391Z,8.08
2022-12-05T18:31:24.013Z,8.07
2022-12-05T18:33:52.100Z,8.07
2022-12-05T18:36:21.288Z,8.07
2022-12-05T18:38:50.609Z,8.08
2022-12-05T18:41:19.285Z,8.10
2022-12-05T18:43:47.332Z,8.12
2022-12-05T18:46:15.621Z,8.14
2022-12-05T18:48:47.438Z,8.16
2022-12-05T18:51:17.903Z,8.18
2022-12-05T18:53:54.259Z,8.17
2022-12-05T18:56:31.135Z,8.17
2022-12-05T18:59:04.981Z,8.17
2022-12-05T19:01:34.778Z,8.15
2022-12-05T19:04:04.929Z,8.15
2022-12-05T19:06:36.324Z,8.16
2022-12-05T19:09:08.128Z,8.16
2022-12-05T19:11:36.434Z,8.18
2022-12-05T19:14:05.098Z,8.21
2022-12-05T19:16:35.830Z,8.24
2022-12-05T19:19:08.064Z,8.25
2022-12-05T19:21:36.965Z,8.26
2022-12-05T19:24:08.288Z,8.26
2022-12-05T19:26:36.680Z,8.26
2022-12-05T19:29:05.747Z,8.24
2022-12-05T19:31:35.978Z,8.23
2022-12-05T19:34:06.095Z,8.23
2022-12-05T19:36:35.770Z,8.23
2022-12-05T19:39:10.804Z,8.25
2022-12-05T19:41:39.239Z,8.28
2022-12-05T19:44:07.500Z,8.27
2022-12-05T19:46:36.213Z,8.31
2022-12-05T19:49:08.526Z,8.30
2022-12-05T19:51:36.992Z,8.29
2022-12-05T19:54:06.169Z,8.27
2022-12-05T19:56:36.017Z,8.24
2022-12-05T19:59:05.635Z,8.23
2022-12-05T20:01:38.860Z,8.23
2022-12-05T20:04:08.192Z,8.22
2022-12-05T20:06:47.814Z,8.20
2022-12-05T20:09:19.071Z,8.10
2022-12-05T20:11:54.097Z,8.07
2022-12-05T20:14:24.592Z,8.04
2022-12-05T20:16:53.733Z,8.02
2022-12-05T20:19:23.331Z,8.02
2022-12-05T20:21:51.534Z,8.01
2022-12-05T20:24:19.698Z,7.99
2022-12-05T20:26:47.781Z,7.95
2022-12-05T20:29:16.418Z,7.91
2022-12-05T20:31:44.701Z,7.88
2022-12-05T20:34:15.381Z,7.86
2022-12-05T20:36:43.811Z,7.83
2022-12-05T20:39:15.740Z,7.83
2022-12-05T20:41:44.140Z,7.82
2022-12-05T20:44:13.921Z,7.84
2022-12-05T20:46:42.348Z,7.86
2022-12-05T20:49:11.562Z,7.87
2022-12-05T20:51:42.416Z,7.89
2022-12-05T20:54:13.183Z,7.90
2022-12-05T20:56:41.392Z,7.91
2022-12-05T20:59:11.832Z,7.93
2022-12-05T21:01:40.298Z,7.95
2022-12-05T21:04:09.763Z,7.98
2022-12-05T21:06:43.923Z,7.94
2022-12-05T21:09:18.552Z,7.97
2022-12-05T21:11:46.559Z,7.98
2022-12-05T21:14:15.006Z,7.98
2022-12-05T21:16:42.953Z,7.99
2022-12-05T21:19:11.401Z,7.98
2022-12-05T21:21:39.406Z,7.98
2022-12-05T21:24:08.359Z,7.96
2022-12-05T21:26:36.795Z,7.95
2022-12-05T21:29:06.504Z,7.95
2022-12-05T21:31:38.048Z,7.94
2022-12-05T21:34:20.319Z,7.91
2022-12-05T21:36:49.259Z,7.87
2022-12-05T21:39:17.186Z,7.86
2022-12-05T21:41:45.135Z,7.83
2022-12-05T21:44:15.027Z,7.80
2022-12-05T21:46:43.030Z,7.78
2022-12-05T21:49:11.666Z,7.79
2022-12-05T21:51:42.132Z,7.78
2022-12-05T21:54:10.149Z,7.74
2022-12-05T21:56:39.163Z,7.71
2022-12-05T21:59:07.169Z,7.70
2022-12-05T22:01:35.157Z,7.70
2022-12-05T22:04:03.454Z,7.71
2022-12-05T22:06:34.024Z,7.73
2022-12-05T22:09:02.701Z,7.74
2022-12-05T22:11:30.784Z,7.76
2022-12-05T22:13:58.577Z,7.80
2022-12-05T22:16:32.794Z,7.82
2022-12-05T22:19:02.817Z,7.80
2022-12-05T22:21:34.157Z,7.79
2022-12-05T22:24:02.367Z,7.79
2022-12-05T22:26:30.266Z,7.78
2022-12-05T22:28:58.500Z,7.76
2022-12-05T22:31:26.606Z,7.73
2022-12-05T22:33:54.562Z,7.73
2022-12-05T22:36:24.417Z,7.76
2022-12-05T22:38:52.659Z,7.77
2022-12-05T22:41:23.906Z,7.75
2022-12-05T22:43:58.198Z,7.76
2022-12-05T22:46:28.375Z,7.77
2022-12-05T22:48:56.845Z,7.80
2022-12-05T22:51:27.525Z,7.83
2022-12-05T22:53:55.967Z,7.83
2022-12-05T22:56:26.519Z,7.82
2022-12-05T22:58:59.975Z,7.78
2022-12-05T23:01:27.815Z,7.76
2022-12-05T23:04:01.287Z,7.74
2022-12-05T23:06:30.800Z,7.71
2022-12-05T23:08:59.828Z,7.66
2022-12-05T23:11:29.834Z,7.61
2022-12-05T23:14:01.618Z,7.55
2022-12-05T23:16:32.319Z,7.58
2022-12-05T23:19:03.716Z,7.57
2022-12-05T23:21:35.126Z,7.59
2022-12-05T23:24:06.488Z,7.62
2022-12-05T23:26:38.915Z,7.67
2022-12-05T23:29:06.887Z,7.68
2022-12-05T23:31:34.689Z,7.70
2022-12-05T23:34:03.770Z,7.70
2022-12-05T23:36:33.583Z,7.69
2022-12-05T23:39:01.913Z,7.69
2022-12-05T23:41:30.045Z,7.62
2022-12-05T23:43:58.196Z,7.61
2022-12-05T23:46:28.037Z,7.58
2022-12-05T23:48:56.531Z,7.57
2022-12-05T23:51:25.462Z,7.56
2022-12-05T23:53:55.841Z,7.55
2022-12-05T23:56:26.479Z,7.54
2022-12-05T23:58:55.420Z,7.53
